Time;durP1;ratioP1;P1;durP2;ratioP2;P2;SDS_P1;SDS_P2;PMS_P1;PMS_P2;Temp;Humidity;BMP_temperature;BMP_pressure;BME280_temperature;BME280_humidity;BME280_pressure;Samples;Min_cycle;Max_cycle;Signal;HPM_P1;HPM_P2
2023/06/28 00:03:11;;;;;;;2.15;1.95;;;;;;;;;;13044244;22;20878;-86
2023/06/28 00:08:13;;;;;;;3.15;2.20;;;;;;;;;;13044275;22;20353;-87
2023/06/28 00:13:17;;;;;;;3.58;2.22;;;;;;;;;;13044781;22;20804;-86
2023/06/28 00:18:19;;;;;;;2.63;2.00;;;;;;;;;;13046805;22;20365;-87
2023/06/28 00:23:22;;;;;;;2.30;1.80;;;;;;;;;;13043993;22;20361;-87
2023/06/28 00:28:26;;;;;;;2.47;1.60;;;;;;;;;;13044213;22;20756;-86
2023/06/28 00:33:28;;;;;;;2.30;1.40;;;;;;;;;;13044814;22;20419;-87
2023/06/28 00:38:30;;;;;;;1.92;1.25;;;;;;;;;;13044628;22;20431;-87
2023/06/28 00:43:34;;;;;;;2.43;1.27;;;;;;;;;;13044526;22;20369;-86
2023/06/28 00:48:37;;;;;;;2.20;1.50;;;;;;;;;;13044216;22;20406;-87
2023/06/28 00:53:40;;;;;;;2.90;1.80;;;;;;;;;;13044433;22;20365;-86
2023/06/28 00:58:44;;;;;;;3.20;2.20;;;;;;;;;;13043332;22;20368;-87
2023/06/28 01:03:50;;;;;;;6.20;2.70;;;;;;;;;;13065360;22;20662;-86
2023/06/28 01:08:53;;;;;;;4.25;2.97;;;;;;;;;;13043521;22;20376;-87
2023/06/28 01:13:57;;;;;;;3.75;2.75;;;;;;;;;;13044097;22;20395;-86
2023/06/28 01:19:00;;;;;;;3.30;2.67;;;;;;;;;;13043989;22;20817;-87
2023/06/28 01:24:04;;;;;;;3.08;2.45;;;;;;;;;;13064426;22;20697;-86
2023/06/28 01:29:08;;;;;;;2.45;2.10;;;;;;;;;;13043547;22;20374;-87
2023/06/28 01:34:10;;;;;;;3.20;2.30;;;;;;;;;;13043642;22;20361;-87
2023/06/28 01:39:14;;;;;;;4.03;2.03;;;;;;;;;;13043074;22;20407;-87
2023/06/28 01:44:17;;;;;;;2.22;1.80;;;;;;;;;;13046068;22;20422;-86
2023/06/28 01:49:19;;;;;;;2.53;1.83;;;;;;;;;;13069214;22;20368;-86
2023/06/28 01:54:23;;;;;;;2.13;1.80;;;;;;;;;;13047460;22;20421;-87
2023/06/28 01:59:26;;;;;;;2.95;1.85;;;;;;;;;;13047043;22;20894;-87
2023/06/28 02:04:28;;;;;;;3.17;1.63;;;;;;;;;;13069156;22;20353;-87
2023/06/28 02:09:32;;;;;;;2.20;1.45;;;;;;;;;;13046757;22;20380;-87
2023/06/28 02:14:34;;;;;;;2.00;1.50;;;;;;;;;;13047286;22;20365;-86
2023/06/28 02:19:36;;;;;;;3.55;1.50;;;;;;;;;;13047278;22;20365;-86
2023/06/28 02:24:40;;;;;;;2.50;1.52;;;;;;;;;;13045419;22;20365;-86
2023/06/28 02:29:42;;;;;;;2.83;1.35;;;;;;;;;;13046390;22;20929;-87
2023/06/28 02:34:45;;;;;;;3.72;1.45;;;;;;;;;;13046390;22;20415;-86
2023/06/28 02:39:48;;;;;;;2.73;1.57;;;;;;;;;;13046337;22;20848;-86
2023/06/28 02:44:51;;;;;;;2.17;1.52;;;;;;;;;;13068004;22;20418;-86
2023/06/28 02:49:53;;;;;;;2.03;1.50;;;;;;;;;;13045696;22;20442;-86
2023/06/28 02:54:57;;;;;;;3.03;1.65;;;;;;;;;;13046637;22;20751;-87
2023/06/28 02:59:59;;;;;;;1.70;1.40;;;;;;;;;;13046267;22;20426;-86
2023/06/28 03:05:02;;;;;;;2.63;1.70;;;;;;;;;;13046555;22;20361;-86
2023/06/28 03:10:07;;;;;;;2.40;1.70;;;;;;;;;;13045504;22;20477;-87
2023/06/28 03:15:52;;;;;;;3.70;1.95;;;;;;;;;;12848051;22;21043;-87
2023/06/28 03:20:55;;;;;;;2.43;1.87;;;;;;;;;;13045345;22;20365;-86
2023/06/28 03:25:58;;;;;;;2.45;1.60;;;;;;;;;;13066432;22;20434;-86
2023/06/28 03:31:01;;;;;;;3.43;2.20;;;;;;;;;;13045809;22;20376;-87
2023/06/28 03:36:03;;;;;;;2.70;1.90;;;;;;;;;;13067000;22;20369;-87
2023/06/28 03:41:07;;;;;;;4.20;2.20;;;;;;;;;;13044884;22;20901;-86
2023/06/28 03:46:10;;;;;;;3.13;2.08;;;;;;;;;;13060771;22;20490;-86
2023/06/28 03:51:12;;;;;;;3.17;2.10;;;;;;;;;;13044984;22;20443;-86
2023/06/28 03:56:16;;;;;;;2.70;2.23;;;;;;;;;;13043792;22;20365;-87
2023/06/28 04:01:19;;;;;;;3.20;1.93;;;;;;;;;;13044614;22;20361;-87
2023/06/28 04:06:21;;;;;;;2.42;2.05;;;;;;;;;;13043624;22;20732;-86
2023/06/28 04:11:25;;;;;;;4.07;2.17;;;;;;;;;;13043344;22;20407;-86
2023/06/28 04:16:28;;;;;;;4.00;2.00;;;;;;;;;;13044420;22;20358;-87
2023/06/28 04:21:30;;;;;;;3.20;2.30;;;;;;;;;;13054229;22;20432;-87
2023/06/28 04:26:34;;;;;;;2.83;2.33;;;;;;;;;;13044589;22;20353;-86
2023/06/28 04:31:36;;;;;;;2.67;2.10;;;;;;;;;;13043557;22;20377;-86
2023/06/28 04:36:39;;;;;;;3.25;2.30;;;;;;;;;;13042306;22;20357;-86
2023/06/28 04:41:45;;;;;;;3.30;2.53;;;;;;;;;;13065745;22;20933;-87
2023/06/28 04:46:48;;;;;;;3.47;2.53;;;;;;;;;;13043854;22;20418;-87
2023/06/28 04:51:51;;;;;;;3.45;2.70;;;;;;;;;;13043957;22;20380;-87
2023/06/28 04:56:55;;;;;;;2.83;2.55;;;;;;;;;;13043290;22;20361;-86
2023/06/28 05:01:58;;;;;;;4.25;2.70;;;;;;;;;;13044340;22;20418;-86
2023/06/28 05:07:03;;;;;;;3.27;2.50;;;;;;;;;;13065062;22;20357;-87
2023/06/28 05:12:07;;;;;;;2.60;2.30;;;;;;;;;;13064958;22;20368;-82
2023/06/28 05:17:10;;;;;;;3.50;2.80;;;;;;;;;;13042586;22;20412;-82
2023/06/28 05:22:12;;;;;;;4.30;3.00;;;;;;;;;;13041705;22;20364;-83
2023/06/28 05:27:16;;;;;;;3.55;2.40;;;;;;;;;;13042583;22;20368;-83
2023/06/28 05:32:19;;;;;;;3.03;2.42;;;;;;;;;;13064448;22;20377;-82
2023/06/28 05:37:21;;;;;;;3.43;2.80;;;;;;;;;;13042491;22;20415;-82
2023/06/28 05:42:25;;;;;;;3.10;2.60;;;;;;;;;;13042287;22;20838;-83
2023/06/28 05:47:28;;;;;;;5.32;2.70;;;;;;;;;;13042902;22;20361;-82
2023/06/28 05:52:30;;;;;;;2.87;2.60;;;;;;;;;;13042628;22;20377;-82
2023/06/28 05:57:34;;;;;;;3.60;2.80;;;;;;;;;;13042592;22;20411;-83
2023/06/28 06:02:37;;;;;;;4.30;2.80;;;;;;;;;;13042149;22;20365;-83
2023/06/28 06:07:39;;;;;;;4.55;2.67;;;;;;;;;;13041905;22;20357;-82
2023/06/28 06:12:43;;;;;;;4.63;2.75;;;;;;;;;;13065642;22;20373;-82
2023/06/28 06:17:47;;;;;;;3.77;2.60;;;;;;;;;;13042815;22;20357;-82
2023/06/28 06:22:50;;;;;;;4.65;2.63;;;;;;;;;;13042427;22;20365;-82
2023/06/28 06:27:54;;;;;;;3.73;2.60;;;;;;;;;;13042021;22;20365;-82
2023/06/28 06:32:56;;;;;;;3.20;2.40;;;;;;;;;;13044428;22;20384;-82
2023/06/28 06:37:59;;;;;;;3.77;2.47;;;;;;;;;;13045204;22;20361;-83
2023/06/28 06:43:03;;;;;;;2.95;2.60;;;;;;;;;;13045102;22;20365;-83
2023/06/28 06:48:06;;;;;;;3.93;2.50;;;;;;;;;;13044808;22;20357;-83
2023/06/28 06:53:08;;;;;;;3.50;2.58;;;;;;;;;;13045078;22;20377;-83
2023/06/28 06:58:12;;;;;;;2.73;2.20;;;;;;;;;;13044996;22;20357;-85
2023/06/28 07:03:14;;;;;;;4.47;2.35;;;;;;;;;;13046339;22;20357;-82
2023/06/28 07:08:18;;;;;;;2.97;2.33;;;;;;;;;;13045910;22;20826;-82
2023/06/28 07:13:21;;;;;;;3.70;2.43;;;;;;;;;;13044275;22;20415;-82
2023/06/28 07:18:24;;;;;;;4.13;2.30;;;;;;;;;;13044657;22;20825;-82
2023/06/28 07:23:26;;;;;;;3.50;2.50;;;;;;;;;;13044605;22;20449;-83
2023/06/28 07:28:30;;;;;;;3.10;2.30;;;;;;;;;;13044903;22;20361;-84
2023/06/28 07:33:32;;;;;;;5.20;2.70;;;;;;;;;;13044046;22;20712;-84
2023/06/28 07:38:34;;;;;;;5.33;2.60;;;;;;;;;;13043268;22;20395;-83
2023/06/28 07:43:38;;;;;;;3.72;2.30;;;;;;;;;;13044387;22;20894;-84
2023/06/28 07:48:41;;;;;;;5.20;2.30;;;;;;;;;;13044389;22;20418;-84
2023/06/28 07:53:45;;;;;;;3.50;2.20;;;;;;;;;;13044525;22;20384;-84
2023/06/28 07:58:49;;;;;;;4.47;2.60;;;;;;;;;;13044935;22;20430;-86
2023/06/28 08:03:51;;;;;;;2.80;2.33;;;;;;;;;;13044362;22;20451;-86
2023/06/28 08:08:54;;;;;;;3.77;2.40;;;;;;;;;;13044086;22;20353;-87
2023/06/28 08:13:57;;;;;;;3.72;2.35;;;;;;;;;;13046090;22;20462;-86
2023/06/28 08:19:00;;;;;;;4.23;2.50;;;;;;;;;;13065995;22;20419;-87
2023/06/28 08:24:02;;;;;;;2.42;2.20;;;;;;;;;;13043882;22;20414;-87
2023/06/28 08:29:06;;;;;;;3.53;2.85;;;;;;;;;;13044905;22;20418;-87
2023/06/28 08:34:08;;;;;;;3.15;2.60;;;;;;;;;;13044064;22;20385;-87
2023/06/28 08:39:11;;;;;;;4.05;2.40;;;;;;;;;;13043025;22;20368;-87
2023/06/28 08:44:17;;;;;;;5.40;2.43;;;;;;;;;;13044462;22;20357;-87
2023/06/28 08:49:20;;;;;;;4.57;2.85;;;;;;;;;;13043535;22;20438;-87
2023/06/28 08:54:23;;;;;;;3.45;2.25;;;;;;;;;;13042952;22;20916;-87
2023/06/28 08:59:27;;;;;;;2.55;2.35;;;;;;;;;;13044473;22;20391;-87
2023/06/28 09:04:30;;;;;;;2.95;2.10;;;;;;;;;;13043897;22;20791;-87
2023/06/28 09:09:35;;;;;;;2.95;2.47;;;;;;;;;;13043871;22;20423;-87
2023/06/28 09:14:40;;;;;;;4.13;2.40;;;;;;;;;;13043439;22;20377;-88
2023/06/28 09:19:42;;;;;;;3.30;2.40;;;;;;;;;;13042948;22;20391;-87
2023/06/28 09:24:49;;;;;;;3.50;2.40;;;;;;;;;;13065140;22;20821;-87
2023/06/28 09:30:01;;;;;;;2.47;2.20;;;;;;;;;;13043877;22;20434;-86
2023/06/28 09:35:09;;;;;;;3.33;2.20;;;;;;;;;;13044032;22;20411;-87
2023/06/28 09:40:15;;;;;;;3.95;2.25;;;;;;;;;;13042644;22;20376;-87
2023/06/28 09:45:26;;;;;;;5.65;2.20;;;;;;;;;;13043639;22;20361;-87
2023/06/28 09:50:39;;;;;;;7.35;2.67;;;;;;;;;;13064621;22;20369;-87
2023/06/28 09:55:43;;;;;;;2.95;2.10;;;;;;;;;;13064708;22;20446;-86
2023/06/28 10:00:49;;;;;;;4.03;2.10;;;;;;;;;;13042610;22;20379;-87
2023/06/28 10:05:56;;;;;;;4.13;2.00;;;;;;;;;;13045977;22;20369;-86
2023/06/28 10:10:58;;;;;;;2.67;1.90;;;;;;;;;;13046056;22;20353;-88
2023/06/28 10:16:06;;;;;;;4.05;1.92;;;;;;;;;;13046307;22;20403;-87
2023/06/28 10:21:09;;;;;;;3.33;1.70;;;;;;;;;;13046879;22;20431;-87
2023/06/28 10:26:13;;;;;;;3.47;1.73;;;;;;;;;;13046718;22;20365;-87
2023/06/28 10:31:18;;;;;;;2.10;1.90;;;;;;;;;;13046779;22;20383;-87
2023/06/28 10:36:22;;;;;;;2.87;1.93;;;;;;;;;;13047978;22;20441;-87
2023/06/28 10:41:25;;;;;;;2.30;1.70;;;;;;;;;;13046047;22;20361;-87
2023/06/28 10:46:29;;;;;;;3.78;1.92;;;;;;;;;;13045794;22;20829;-86
2023/06/28 10:51:33;;;;;;;2.63;1.90;;;;;;;;;;13046902;22;20376;-86
2023/06/28 10:56:37;;;;;;;3.45;1.80;;;;;;;;;;13046216;22;20365;-87
2023/06/28 11:01:53;;;;;;;3.07;1.77;;;;;;;;;;13046687;22;20377;-86
2023/06/28 11:07:14;;;;;;;5.22;2.00;;;;;;;;;;13045251;22;20906;-86
2023/06/28 11:12:20;;;;;;;2.83;1.90;;;;;;;;;;13067193;22;20380;-86
2023/06/28 11:17:24;;;;;;;2.30;1.70;;;;;;;;;;13045760;22;20365;-86
2023/06/28 11:22:47;;;;;;;5.00;2.23;;;;;;;;;;13045299;22;20422;-86
2023/06/28 11:27:50;;;;;;;2.42;2.17;;;;;;;;;;13045582;22;20426;-86
2023/06/28 11:32:55;;;;;;;3.10;2.00;;;;;;;;;;13044925;22;20381;-86
2023/06/28 11:37:58;;;;;;;3.70;2.00;;;;;;;;;;13044608;22;20902;-85
2023/06/28 11:43:00;;;;;;;3.63;2.27;;;;;;;;;;13044909;22;20443;-86
2023/06/28 11:48:05;;;;;;;4.53;2.17;;;;;;;;;;13045100;22;20361;-86
2023/06/28 11:53:08;;;;;;;4.37;2.17;;;;;;;;;;13044838;22;20415;-86
2023/06/28 11:58:11;;;;;;;4.00;1.97;;;;;;;;;;13066537;22;20361;-86
2023/06/28 12:03:15;;;;;;;16.25;3.05;;;;;;;;;;13044792;22;20353;-86
2023/06/28 12:08:18;;;;;;;3.85;2.00;;;;;;;;;;13044931;22;20736;-86
2023/06/28 12:13:21;;;;;;;2.05;1.80;;;;;;;;;;13044149;22;20384;-86
2023/06/28 12:18:52;;;;;;;6.97;2.25;;;;;;;;;;13044661;22;20407;-86
2023/06/28 12:24:10;;;;;;;4.60;1.80;;;;;;;;;;13043734;22;20434;-86
2023/06/28 12:29:13;;;;;;;3.42;1.95;;;;;;;;;;13044293;22;21003;-86
2023/06/28 12:34:23;;;;;;;13.32;3.00;;;;;;;;;;13044104;22;20373;-86
2023/06/28 12:39:26;;;;;;;3.30;2.10;;;;;;;;;;13065255;22;20361;-86
2023/06/28 12:44:29;;;;;;;1.95;1.75;;;;;;;;;;13044077;22;20349;-86
2023/06/28 12:49:37;;;;;;;5.43;1.85;;;;;;;;;;13042695;22;20361;-86
2023/06/28 12:54:39;;;;;;;1.88;1.50;;;;;;;;;;13043362;22;20435;-85
2023/06/28 12:59:42;;;;;;;2.08;1.63;;;;;;;;;;13043492;22;20430;-86
2023/06/28 13:04:46;;;;;;;2.50;1.75;;;;;;;;;;13043742;22;20361;-87
2023/06/28 13:09:48;;;;;;;1.87;1.30;;;;;;;;;;13043439;22;20357;-87
2023/06/28 13:14:51;;;;;;;3.47;1.60;;;;;;;;;;13043359;22;20902;-86
2023/06/28 13:19:57;;;;;;;3.53;1.60;;;;;;;;;;13042409;22;20830;-87
2023/06/28 13:24:59;;;;;;;3.87;1.40;;;;;;;;;;13042188;22;20694;-87
2023/06/28 13:30:01;;;;;;;4.30;1.90;;;;;;;;;;13042301;22;20489;-86
2023/06/28 13:35:06;;;;;;;5.88;1.15;;;;;;;;;;13043515;22;20832;-87
2023/06/28 13:40:09;;;;;;;1.10;0.70;;;;;;;;;;13043808;22;20426;-86
2023/06/28 13:45:12;;;;;;;1.42;0.80;;;;;;;;;;13047689;22;20402;-87
2023/06/28 13:50:16;;;;;;;2.72;1.10;;;;;;;;;;13068759;22;20369;-87
2023/06/28 13:55:19;;;;;;;1.90;1.08;;;;;;;;;;13046892;22;20376;-87
2023/06/28 14:00:21;;;;;;;3.05;1.25;;;;;;;;;;13047253;22;20361;-86
2023/06/28 14:05:25;;;;;;;46.70;3.37;;;;;;;;;;13047024;22;20361;-86
2023/06/28 14:10:28;;;;;;;18.67;1.83;;;;;;;;;;13046862;22;20428;-86
2023/06/28 14:15:30;;;;;;;9.77;1.10;;;;;;;;;;13046084;22;20449;-87
2023/06/28 14:20:34;;;;;;;7.50;0.93;;;;;;;;;;13068543;22;20368;-87
2023/06/28 14:25:36;;;;;;;2.83;0.70;;;;;;;;;;13045877;22;20426;-87
2023/06/28 14:30:39;;;;;;;4.15;0.82;;;;;;;;;;13047909;22;20505;-87
2023/06/28 14:35:43;;;;;;;10.53;1.23;;;;;;;;;;13046528;22;20438;-87
2023/06/28 14:40:45;;;;;;;0.43;0.43;;;;;;;;;;13045380;22;20395;-87
2023/06/28 14:45:48;;;;;;;5.20;1.00;;;;;;;;;;13068282;22;20801;-86
2023/06/28 14:50:51;;;;;;;1.90;0.83;;;;;;;;;;13045243;22;20353;-86
2023/06/28 14:55:54;;;;;;;11.88;1.15;;;;;;;;;;13045567;22;20438;-86
2023/06/28 15:00:56;;;;;;;1.45;0.52;;;;;;;;;;13045255;22;20407;-87
2023/06/28 15:06:00;;;;;;;2.40;0.70;;;;;;;;;;13067547;22;20368;-87
2023/06/28 15:11:02;;;;;;;1.27;0.60;;;;;;;;;;13045717;22;20689;-87
2023/06/28 15:16:05;;;;;;;3.80;0.73;;;;;;;;;;13045314;22;20381;-87
2023/06/28 15:21:09;;;;;;;1.27;0.60;;;;;;;;;;13045781;22;20357;-87
2023/06/28 15:26:11;;;;;;;9.32;1.45;;;;;;;;;;13044839;22;20373;-87
2023/06/28 15:31:14;;;;;;;2.00;0.85;;;;;;;;;;13045689;22;20361;-87
2023/06/28 15:36:18;;;;;;;1.80;0.65;;;;;;;;;;13045303;22;20769;-86
2023/06/28 15:41:20;;;;;;;1.58;0.70;;;;;;;;;;13044854;22;20403;-87
2023/06/28 15:46:33;;;;;;;12.45;1.20;;;;;;;;;;13067293;22;20431;-87
2023/06/28 15:51:37;;;;;;;0.57;0.57;;;;;;;;;;13044959;22;20431;-87
2023/06/28 15:56:41;;;;;;;4.72;0.73;;;;;;;;;;13045179;22;20434;-87
2023/06/28 16:01:43;;;;;;;1.20;0.70;;;;;;;;;;13044732;22;20415;-87
2023/06/28 16:06:47;;;;;;;1.60;0.60;;;;;;;;;;13045411;22;20423;-87
2023/06/28 16:11:49;;;;;;;1.73;0.60;;;;;;;;;;13044028;22;20898;-87
2023/06/28 16:16:52;;;;;;;0.90;0.70;;;;;;;;;;13045063;22;20443;-87
2023/06/28 16:21:56;;;;;;;0.85;0.50;;;;;;;;;;13044428;22;20433;-87
2023/06/28 16:27:00;;;;;;;1.40;0.80;;;;;;;;;;13043338;22;20361;-87
2023/06/28 16:32:03;;;;;;;1.58;0.52;;;;;;;;;;13044427;22;20349;-87
2023/06/28 16:37:06;;;;;;;1.35;0.80;;;;;;;;;;13042786;22;20385;-86
2023/06/28 16:42:09;;;;;;;0.70;0.60;;;;;;;;;;13044298;22;20372;-88
2023/06/28 16:47:11;;;;;;;1.47;0.60;;;;;;;;;;13044556;22;20505;-83
2023/06/28 16:52:15;;;;;;;1.80;0.60;;;;;;;;;;13042600;22;20353;-86
2023/06/28 16:57:17;;;;;;;0.90;0.50;;;;;;;;;;13042769;22;20756;-87
2023/06/28 17:02:20;;;;;;;1.97;0.80;;;;;;;;;;13065689;22;20365;-86
2023/06/28 17:07:24;;;;;;;1.20;0.68;;;;;;;;;;13042690;22;20666;-86
2023/06/28 17:12:26;;;;;;;0.90;0.70;;;;;;;;;;13065155;22;20368;-86
2023/06/28 17:17:29;;;;;;;0.75;0.50;;;;;;;;;;13043268;22;20372;-87
2023/06/28 17:22:34;;;;;;;1.30;0.50;;;;;;;;;;13043002;22;20747;-87
2023/06/28 17:27:37;;;;;;;0.80;0.60;;;;;;;;;;13042866;22;20426;-87
2023/06/28 17:32:39;;;;;;;0.73;0.60;;;;;;;;;;13043794;22;20410;-86
2023/06/28 17:37:43;;;;;;;1.23;0.60;;;;;;;;;;13049464;22;20840;-86
2023/06/28 17:42:45;;;;;;;1.20;0.90;;;;;;;;;;13042226;22;20361;-86
2023/06/28 17:47:47;;;;;;;0.93;0.80;;;;;;;;;;13043291;22;20369;-86
2023/06/28 17:52:51;;;;;;;1.87;0.60;;;;;;;;;;13042224;22;20365;-86
2023/06/28 17:57:53;;;;;;;1.88;0.80;;;;;;;;;;13043134;22;20431;-86
2023/06/28 18:02:56;;;;;;;2.80;0.70;;;;;;;;;;13043248;22;20365;-86
2023/06/28 18:08:02;;;;;;;1.10;0.80;;;;;;;;;;13041334;22;20365;-87
2023/06/28 18:13:05;;;;;;;0.70;0.70;;;;;;;;;;13041819;22;20360;-86
2023/06/28 18:18:08;;;;;;;1.58;0.68;;;;;;;;;;13042948;22;20434;-86
2023/06/28 18:23:11;;;;;;;1.10;0.60;;;;;;;;;;13041956;22;20693;-86
2023/06/28 18:28:14;;;;;;;0.80;0.52;;;;;;;;;;13045640;22;20361;-87
2023/06/28 18:33:16;;;;;;;1.35;0.70;;;;;;;;;;13045729;22;20445;-86
2023/06/28 18:38:20;;;;;;;2.55;1.00;;;;;;;;;;13046373;22;20376;-86
2023/06/28 18:43:22;;;;;;;5.93;1.50;;;;;;;;;;13066038;22;20437;-86
2023/06/28 18:48:24;;;;;;;8.93;1.05;;;;;;;;;;13045470;22;20349;-86
2023/06/28 18:53:29;;;;;;;4.50;1.10;;;;;;;;;;13045820;22;20353;-86
2023/06/28 18:58:33;;;;;;;4.40;1.50;;;;;;;;;;13067758;22;20429;-86
2023/06/28 19:03:35;;;;;;;3.70;1.10;;;;;;;;;;13067385;22;20473;-86
2023/06/28 19:08:39;;;;;;;2.40;0.98;;;;;;;;;;13045441;22;20427;-86
2023/06/28 19:13:41;;;;;;;1.60;1.23;;;;;;;;;;13045734;22;20365;-86
2023/06/28 19:18:44;;;;;;;2.08;1.20;;;;;;;;;;13046249;22;20411;-85
2023/06/28 19:23:47;;;;;;;2.80;1.50;;;;;;;;;;13044278;22;20369;-86
2023/06/28 19:28:50;;;;;;;3.30;1.40;;;;;;;;;;13045981;22;20878;-86
2023/06/28 19:33:52;;;;;;;2.60;1.00;;;;;;;;;;13046291;22;20427;-87
2023/06/28 19:38:56;;;;;;;2.70;1.00;;;;;;;;;;13043935;22;20430;-86
2023/06/28 19:43:58;;;;;;;1.97;1.10;;;;;;;;;;13067409;22;20795;-86
2023/06/28 19:49:01;;;;;;;0.97;0.87;;;;;;;;;;13060253;22;20365;-86
2023/06/28 19:54:05;;;;;;;1.45;1.00;;;;;;;;;;13044618;22;20829;-86
2023/06/28 19:59:07;;;;;;;3.00;1.00;;;;;;;;;;13066180;22;20357;-86
2023/06/28 20:04:10;;;;;;;1.87;1.27;;;;;;;;;;13044954;22;20736;-86
2023/06/28 20:09:15;;;;;;;1.98;1.00;;;;;;;;;;13043829;22;20685;-86
2023/06/28 20:14:17;;;;;;;2.00;1.10;;;;;;;;;;13044447;22;20368;-85
2023/06/28 20:19:20;;;;;;;1.67;1.17;;;;;;;;;;13043935;22;20423;-86
2023/06/28 20:24:23;;;;;;;8.10;1.47;;;;;;;;;;13044256;22;20358;-87
2023/06/28 20:29:26;;;;;;;2.28;2.03;;;;;;;;;;13044057;22;20477;-86
2023/06/28 20:34:28;;;;;;;4.45;2.40;;;;;;;;;;13043601;22;20454;-86
2023/06/28 20:39:32;;;;;;;5.05;2.60;;;;;;;;;;13064812;22;20377;-85
2023/06/28 20:44:36;;;;;;;5.30;3.20;;;;;;;;;;13042973;22;20828;-86
2023/06/28 20:49:38;;;;;;;8.25;2.97;;;;;;;;;;13043255;22;20352;-86
2023/06/28 20:54:42;;;;;;;9.50;2.78;;;;;;;;;;13043409;22;20369;-86
2023/06/28 20:59:44;;;;;;;4.68;2.60;;;;;;;;;;13043660;22;20411;-87
2023/06/28 21:04:47;;;;;;;4.22;2.20;;;;;;;;;;13064711;22;20392;-86
2023/06/28 21:09:50;;;;;;;4.10;1.98;;;;;;;;;;13065047;22;20399;-86
2023/06/28 21:14:53;;;;;;;4.70;2.00;;;;;;;;;;13043046;22;20381;-86
2023/06/28 21:19:55;;;;;;;4.93;1.80;;;;;;;;;;13043060;22;20800;-86
2023/06/28 21:24:59;;;;;;;4.05;2.17;;;;;;;;;;13042720;22;20361;-86
2023/06/28 21:30:01;;;;;;;4.18;1.88;;;;;;;;;;13043140;22;20369;-86
2023/06/28 21:35:04;;;;;;;4.90;2.83;;;;;;;;;;13065168;22;20434;-86
2023/06/28 21:40:09;;;;;;;5.50;2.90;;;;;;;;;;13042107;22;20373;-87
2023/06/28 21:45:11;;;;;;;6.82;3.05;;;;;;;;;;13042719;22;20361;-86
2023/06/28 21:50:14;;;;;;;4.27;2.57;;;;;;;;;;13043280;22;20388;-86
2023/06/28 21:55:18;;;;;;;6.07;2.88;;;;;;;;;;13042186;22;20442;-86
2023/06/28 22:00:23;;;;;;;6.77;2.90;;;;;;;;;;13066634;22;20458;-86
2023/06/28 22:05:25;;;;;;;4.53;2.65;;;;;;;;;;13068719;22;20361;-86
2023/06/28 22:10:29;;;;;;;4.05;2.50;;;;;;;;;;13045880;22;20446;-87
2023/06/28 22:15:32;;;;;;;5.10;2.70;;;;;;;;;;13069049;22;20434;-86
2023/06/28 22:20:38;;;;;;;3.92;2.80;;;;;;;;;;13047741;22;20369;-87
2023/06/28 22:25:42;;;;;;;5.00;2.80;;;;;;;;;;13046509;22;20391;-86
2023/06/28 22:30:44;;;;;;;4.37;2.73;;;;;;;;;;13046495;22;20380;-86
2023/06/28 22:35:47;;;;;;;3.63;2.53;;;;;;;;;;13067770;22;20376;-87
2023/06/28 22:40:51;;;;;;;4.88;3.03;;;;;;;;;;13046227;22;20391;-86
2023/06/28 22:45:53;;;;;;;5.65;3.10;;;;;;;;;;13046552;22;20418;-87
2023/06/28 22:50:59;;;;;;;4.75;2.80;;;;;;;;;;13046739;22;20369;-86
2023/06/28 22:56:04;;;;;;;3.67;2.53;;;;;;;;;;13045256;22;20430;-86
2023/06/28 23:01:06;;;;;;;3.92;2.70;;;;;;;;;;13068396;22;20369;-86
2023/06/28 23:06:10;;;;;;;5.13;2.47;;;;;;;;;;13046934;22;20416;-86
2023/06/28 23:11:14;;;;;;;4.15;3.10;;;;;;;;;;13044339;22;20369;-86
2023/06/28 23:16:16;;;;;;;3.83;2.60;;;;;;;;;;13067969;22;20373;-86
2023/06/28 23:21:19;;;;;;;4.10;2.88;;;;;;;;;;13045711;22;20426;-87
2023/06/28 23:26:23;;;;;;;5.17;2.70;;;;;;;;;;13045093;22;20357;-87
2023/06/28 23:31:26;;;;;;;5.90;2.90;;;;;;;;;;13046482;22;20377;-86
2023/06/28 23:36:29;;;;;;;4.53;3.10;;;;;;;;;;13045107;22;20381;-86
2023/06/28 23:41:32;;;;;;;4.85;3.10;;;;;;;;;;12960120;22;20380;-86
2023/06/28 23:46:43;;;;;;;5.05;2.90;;;;;;;;;;12918782;22;20418;-86
2023/06/28 23:51:46;;;;;;;3.90;2.60;;;;;;;;;;12918062;22;20696;-86
2023/06/28 23:56:50;;;;;;;4.35;2.80;;;;;;;;;;12936836;23;20372;-86
